Ash Springs, Nevada
Current Conditions -  °F | °C
As of 1:55 AM on Tuesday 21 Oct 2014 (Local Time) from KSGU Reporting Station
Broken Clouds Broken Clouds  
Wind Chill: 64°   Ceiling: 10000
Heat Index: 64°   Visibility: 10mi
Dew Point: 37°   Wind: 3mph
Humidity: 37%   Direction: 170°S
Pressure: 29.93"   Gusts: NA
Location:  37.6°N, 114.8°W
Report Text: KSGU 210855Z AUTO 17003KT 10SM BKN100 18/03 A2993 RMK AO1 52003
Loading
Personal Weather Stations






























Interactive Weather Map
Tropical Storm Tracking
New forecast layout! Learn more

10-Day Weather Forecast

Advertisements
Track Severe Weather on mobile